Weather at Des Moines International Airport

Public forecast

Using degrees Fahrenheit for public forecast. Weather courtesy of forecast.io.

Current aviation weather report (METAR) for Des Moines International Airport

Retrieved 2020/09/27 06:54 UTC (35 minutes ago):

KDSM 270654Z 31009KT 10SM OVC250 21/11 A2971 RMK AO2 SLP052 T02110111

Aviation forecast (TAF) for Des Moines International Airport

Retrieved 2020/09/27 06:22 UTC (1 hour ago):

TAF KDSM 270520Z 2706/2806 27012KT P6SM OVC240 FM271400 31006KT P6SM VCSH OVC100 FM271900 28007KT P6SM BKN110